パリ/シャルル・ド・ゴール の空港の天気 - METARとTAF

シャルル・ド・ゴール国際空港(パリ) ( LFPG / CDG ) - フランス Paris
飛行場実況気象(Metar)
観測時間09/25 07:00 CEST (09/25 05:00 UTC)
風向・風速北東 5m/s
視程10km以上
天気現象
なし
気温6℃
湿度87%
気圧1037hPa
METARLFPG 250500Z 04010KT 010V100 CAVOK 06/04 Q1037 NOSIG
過去の天気等 Google飛行場航空写真 Wunderground天気予報

過去48時間のMETAR

飛行場予報(TAF)
発表時間: 9/25 01:00 CEST (9/24 23:00 UTC)
予報対象時間: 25日2時 CEST ~ 26日8時 CEST
風向・風速北北東 3m/s
視程10km以上
なし
TAF LFPG 242300Z 2500/2606 03006KT CAVOK TX16/2514Z TN06/2506Z